Time;durP1;ratioP1;P1;durP2;ratioP2;P2;SDS_P1;SDS_P2;PMS_P1;PMS_P2;Temp;Humidity;BMP_temperature;BMP_pressure;BME280_temperature;BME280_humidity;BME280_pressure;Samples;Min_cycle;Max_cycle;Signal;HPM_P1;HPM_P2
2023/05/17 00:01:10;;;;;;;1.70;1.23;;;;;;;;;;5030354;28;20480;-52
2023/05/17 00:03:35;;;;;;;1.73;1.20;;;;;;;;;;5016300;28;20660;-52
2023/05/17 00:06:01;;;;;;;1.35;1.13;;;;;;;;;;5007843;28;20449;-52
2023/05/17 00:08:28;;;;;;;1.63;1.25;;;;;;;;;;5033596;28;20216;-52
2023/05/17 00:10:53;;;;;;;1.35;1.02;;;;;;;;;;5013157;28;20192;-52
2023/05/17 00:13:19;;;;;;;1.52;0.80;;;;;;;;;;5017052;28;20231;-52
2023/05/17 00:15:45;;;;;;;1.55;1.20;;;;;;;;;;5020005;28;20184;-52
2023/05/17 00:18:11;;;;;;;1.35;1.20;;;;;;;;;;5016366;28;20242;-52
2023/05/17 00:20:37;;;;;;;1.85;1.20;;;;;;;;;;5031119;28;20204;-52
2023/05/17 00:23:03;;;;;;;1.85;0.90;;;;;;;;;;5005404;28;20189;-52
2023/05/17 00:25:29;;;;;;;1.35;1.10;;;;;;;;;;5032943;28;20234;-52
2023/05/17 00:27:55;;;;;;;2.13;1.30;;;;;;;;;;5016256;28;20192;-52
2023/05/17 00:30:21;;;;;;;1.17;1.05;;;;;;;;;;5019928;28;20189;-52
2023/05/17 00:32:47;;;;;;;3.00;1.30;;;;;;;;;;5016901;28;20196;-52
2023/05/17 00:35:13;;;;;;;1.42;0.90;;;;;;;;;;5013440;28;20193;-52
2023/05/17 00:37:39;;;;;;;1.27;1.17;;;;;;;;;;5016679;28;20516;-52
2023/05/17 00:40:05;;;;;;;2.17;1.45;;;;;;;;;;5017326;28;20304;-52
2023/05/17 00:42:31;;;;;;;1.10;1.00;;;;;;;;;;5015769;28;20212;-52
2023/05/17 00:44:57;;;;;;;1.85;0.90;;;;;;;;;;5016581;28;20216;-52
2023/05/17 00:47:23;;;;;;;1.05;0.95;;;;;;;;;;5031597;28;20172;-52
2023/05/17 00:49:50;;;;;;;1.42;1.10;;;;;;;;;;5011517;28;20203;-52
2023/05/17 00:52:16;;;;;;;1.33;0.93;;;;;;;;;;5014067;28;20184;-52
2023/05/17 00:54:42;;;;;;;1.35;0.98;;;;;;;;;;5028025;28;20184;-53
2023/05/17 00:57:08;;;;;;;1.00;0.90;;;;;;;;;;5032984;28;20526;-52
2023/05/17 00:59:34;;;;;;;2.20;1.15;;;;;;;;;;5033209;28;20488;-52
2023/05/17 01:02:01;;;;;;;1.30;1.13;;;;;;;;;;5024021;28;20186;-52
2023/05/17 01:04:27;;;;;;;1.10;0.82;;;;;;;;;;5031905;28;20172;-53
2023/05/17 01:06:53;;;;;;;1.15;1.00;;;;;;;;;;5029634;28;20209;-52
2023/05/17 01:09:19;;;;;;;1.80;1.30;;;;;;;;;;5015675;28;20272;-52
2023/05/17 01:11:54;;;;;;;2.33;1.00;;;;;;;;;;5031658;28;20191;-53
2023/05/17 01:14:26;;;;;;;1.45;1.08;;;;;;;;;;5016086;28;20227;-53
2023/05/17 01:16:56;;;;;;;4.43;1.00;;;;;;;;;;5016918;28;20491;-53
2023/05/17 01:19:42;;;;;;;2.25;0.93;;;;;;;;;;5014303;28;20215;-53
2023/05/17 01:22:27;;;;;;;1.38;1.02;;;;;;;;;;5015039;28;20192;-53
2023/05/17 01:24:53;;;;;;;1.83;1.30;;;;;;;;;;5029080;28;20303;-53
2023/05/17 01:27:20;;;;;;;1.10;1.00;;;;;;;;;;5032007;28;20259;-53
2023/05/17 01:29:47;;;;;;;1.52;1.00;;;;;;;;;;5027634;28;20212;-53
2023/05/17 01:32:13;;;;;;;1.20;1.00;;;;;;;;;;5029170;28;20576;-53
2023/05/17 01:34:40;;;;;;;1.45;1.00;;;;;;;;;;5030820;28;20188;-53
2023/05/17 01:37:06;;;;;;;1.20;0.93;;;;;;;;;;5032224;28;20185;-53
2023/05/17 01:39:33;;;;;;;0.88;0.88;;;;;;;;;;5029454;28;20262;-53
2023/05/17 01:42:05;;;;;;;0.70;0.70;;;;;;;;;;5031401;28;20267;-55
2023/05/17 01:44:34;;;;;;;1.30;0.90;;;;;;;;;;5028233;28;20181;-53
2023/05/17 01:47:08;;;;;;;1.50;0.82;;;;;;;;;;5025068;28;20188;-53
2023/05/17 01:49:39;;;;;;;1.20;1.08;;;;;;;;;;5036543;28;20208;-52
2023/05/17 01:52:08;;;;;;;2.00;0.80;;;;;;;;;;5015306;28;20874;-52
2023/05/17 01:54:43;;;;;;;1.45;1.05;;;;;;;;;;5026336;28;20184;-52
2023/05/17 01:57:09;;;;;;;1.13;1.02;;;;;;;;;;5030367;28;20183;-52
2023/05/17 01:59:37;;;;;;;1.65;1.10;;;;;;;;;;5031791;28;20208;-52
2023/05/17 02:02:08;;;;;;;0.90;0.90;;;;;;;;;;5016078;28;20294;-52
2023/05/17 02:04:35;;;;;;;1.67;0.90;;;;;;;;;;5031525;28;20267;-52
2023/05/17 02:07:00;;;;;;;1.95;1.20;;;;;;;;;;5029873;28;20203;-52
2023/05/17 02:09:27;;;;;;;0.80;0.80;;;;;;;;;;5025527;28;20189;-52
2023/05/17 02:11:53;;;;;;;1.25;0.77;;;;;;;;;;5019748;28;20192;-53
2023/05/17 02:14:18;;;;;;;1.58;1.00;;;;;;;;;;5011805;28;20283;-53
2023/05/17 02:16:44;;;;;;;0.80;0.80;;;;;;;;;;5012523;28;20241;-53
2023/05/17 02:19:11;;;;;;;1.63;1.08;;;;;;;;;;5029683;28;20219;-53
2023/05/17 02:21:38;;;;;;;0.80;0.80;;;;;;;;;;5030897;28;20180;-53
2023/05/17 02:24:04;;;;;;;1.92;1.02;;;;;;;;;;5005191;28;20197;-53
2023/05/17 02:26:30;;;;;;;1.33;1.00;;;;;;;;;;5031244;28;20559;-53
2023/05/17 02:28:56;;;;;;;1.20;1.10;;;;;;;;;;5030469;28;20180;-53
2023/05/17 02:31:25;;;;;;;1.73;1.00;;;;;;;;;;5015335;28;20411;-53
2023/05/17 02:33:51;;;;;;;0.80;0.80;;;;;;;;;;5014599;28;20183;-53
2023/05/17 02:36:17;;;;;;;1.40;0.98;;;;;;;;;;5029730;28;20184;-53
2023/05/17 02:38:43;;;;;;;0.88;0.88;;;;;;;;;;5023007;28;20191;-53
2023/05/17 02:41:09;;;;;;;1.70;1.00;;;;;;;;;;5007422;28;20228;-53
2023/05/17 02:43:35;;;;;;;1.42;0.93;;;;;;;;;;5005544;28;20193;-53
2023/05/17 02:46:01;;;;;;;0.75;0.70;;;;;;;;;;5005077;28;20189;-53
2023/05/17 02:48:27;;;;;;;1.15;0.90;;;;;;;;;;5028249;28;20199;-53
2023/05/17 02:50:52;;;;;;;0.80;0.80;;;;;;;;;;5030081;28;20184;-53
2023/05/17 02:53:18;;;;;;;1.20;0.95;;;;;;;;;;5027416;28;20269;-53
2023/05/17 02:55:44;;;;;;;1.63;1.20;;;;;;;;;;5029135;28;20216;-53
2023/05/17 02:58:10;;;;;;;1.00;0.82;;;;;;;;;;5012949;28;20199;-53
2023/05/17 03:00:36;;;;;;;1.00;0.90;;;;;;;;;;5012231;28;20192;-52
2023/05/17 03:03:02;;;;;;;0.90;0.90;;;;;;;;;;5014883;28;20204;-53
2023/05/17 03:05:28;;;;;;;1.13;1.00;;;;;;;;;;5026766;28;20181;-53
2023/05/17 03:07:54;;;;;;;1.40;0.98;;;;;;;;;;5022534;28;20188;-53
2023/05/17 03:10:20;;;;;;;1.05;0.98;;;;;;;;;;5021374;28;20234;-53
2023/05/17 03:12:46;;;;;;;2.05;1.00;;;;;;;;;;5029469;28;20272;-53
2023/05/17 03:15:12;;;;;;;2.35;0.90;;;;;;;;;;5011954;28;20188;-53
2023/05/17 03:17:38;;;;;;;1.27;1.05;;;;;;;;;;5028682;28;20184;-53
2023/05/17 03:20:06;;;;;;;3.63;1.00;;;;;;;;;;5015196;28;20208;-53
2023/05/17 03:22:32;;;;;;;0.70;0.70;;;;;;;;;;5030174;28;20275;-53
2023/05/17 03:24:58;;;;;;;1.17;0.77;;;;;;;;;;5037508;28;20278;-53
2023/05/17 03:27:24;;;;;;;3.63;1.08;;;;;;;;;;5014885;28;20263;-53
2023/05/17 03:29:50;;;;;;;1.05;0.90;;;;;;;;;;5010529;28;20263;-53
2023/05/17 03:32:16;;;;;;;1.50;0.98;;;;;;;;;;5029768;28;20370;-53
2023/05/17 03:34:42;;;;;;;1.40;0.85;;;;;;;;;;5029813;28;20663;-53
2023/05/17 03:37:08;;;;;;;0.90;0.80;;;;;;;;;;5029372;28;20188;-53
2023/05/17 03:39:34;;;;;;;0.93;0.88;;;;;;;;;;5026005;28;20456;-53
2023/05/17 03:42:01;;;;;;;1.35;0.80;;;;;;;;;;5015837;28;20458;-52
2023/05/17 03:44:27;;;;;;;1.80;0.95;;;;;;;;;;5029646;28;20172;-53
2023/05/17 03:46:52;;;;;;;2.80;1.40;;;;;;;;;;5021005;28;20517;-52
2023/05/17 03:49:19;;;;;;;6.88;1.70;;;;;;;;;;5019347;28;20181;-52
2023/05/17 03:51:45;;;;;;;10.70;3.25;;;;;;;;;;5022183;28;20191;-52
2023/05/17 03:54:11;;;;;;;15.25;3.03;;;;;;;;;;5009804;28;20338;-52
2023/05/17 03:56:37;;;;;;;19.80;4.47;;;;;;;;;;5032192;28;20515;-52
2023/05/17 03:59:03;;;;;;;24.58;5.90;;;;;;;;;;5017513;28;20311;-52
2023/05/17 04:01:29;;;;;;;37.15;8.93;;;;;;;;;;5016222;28;20279;-52
2023/05/17 04:03:55;;;;;;;41.60;9.20;;;;;;;;;;5027357;28;20185;-52
2023/05/17 04:06:21;;;;;;;36.80;9.30;;;;;;;;;;5018155;28;20192;-52
2023/05/17 04:08:47;;;;;;;35.50;9.43;;;;;;;;;;5015415;28;20180;-52
2023/05/17 04:11:13;;;;;;;41.28;10.65;;;;;;;;;;5030423;28;20200;-52
2023/05/17 04:13:43;;;;;;;43.92;9.95;;;;;;;;;;5033326;28;20189;-52
2023/05/17 04:16:09;;;;;;;34.47;10.23;;;;;;;;;;5013813;28;20207;-53
2023/05/17 04:18:36;;;;;;;38.70;9.82;;;;;;;;;;5032702;28;20196;-52
2023/05/17 04:21:02;;;;;;;37.88;10.00;;;;;;;;;;5011961;28;20216;-52
2023/05/17 04:23:28;;;;;;;43.00;10.45;;;;;;;;;;5016238;28;20184;-52
2023/05/17 04:25:55;;;;;;;37.65;10.43;;;;;;;;;;5029675;28;20199;-52
2023/05/17 04:28:21;;;;;;;38.00;10.65;;;;;;;;;;5029699;28;20180;-52
2023/05/17 04:30:47;;;;;;;45.97;9.90;;;;;;;;;;5008817;28;20441;-52
2023/05/17 04:33:13;;;;;;;33.78;9.82;;;;;;;;;;5011338;28;20192;-52
2023/05/17 04:35:40;;;;;;;30.95;9.15;;;;;;;;;;5015659;28;20263;-53
2023/05/17 04:38:07;;;;;;;35.40;9.07;;;;;;;;;;5039142;28;20191;-50
2023/05/17 04:40:33;;;;;;;32.63;8.95;;;;;;;;;;5014928;28;20208;-51
2023/05/17 04:42:59;;;;;;;30.90;8.65;;;;;;;;;;5032355;28;20235;-51
2023/05/17 04:45:25;;;;;;;33.55;8.32;;;;;;;;;;5008630;28;20187;-56
2023/05/17 04:47:51;;;;;;;32.60;8.65;;;;;;;;;;5012907;28;20189;-54
2023/05/17 04:50:17;;;;;;;23.77;7.18;;;;;;;;;;5018590;28;20270;-56
2023/05/17 04:52:44;;;;;;;28.40;8.80;;;;;;;;;;5018277;28;20474;-50
2023/05/17 04:55:10;;;;;;;23.83;7.55;;;;;;;;;;5016760;28;20276;-54
2023/05/17 04:57:35;;;;;;;26.35;7.53;;;;;;;;;;5011984;28;20263;-51
2023/05/17 05:00:05;;;;;;;25.10;7.18;;;;;;;;;;5026521;28;20218;-51
2023/05/17 05:02:31;;;;;;;25.92;7.43;;;;;;;;;;5024518;28;20188;-52
2023/05/17 05:04:56;;;;;;;21.75;6.80;;;;;;;;;;5017118;28;20336;-52
2023/05/17 05:07:22;;;;;;;30.08;7.38;;;;;;;;;;5031343;28;20283;-51
2023/05/17 05:09:48;;;;;;;20.70;7.18;;;;;;;;;;5018528;28;20191;-51
2023/05/17 05:12:15;;;;;;;22.60;7.18;;;;;;;;;;5033111;28;20184;-51
2023/05/17 05:14:40;;;;;;;22.75;6.60;;;;;;;;;;5020559;28;20180;-51
2023/05/17 05:17:06;;;;;;;21.08;6.50;;;;;;;;;;5013886;28;20258;-51
2023/05/17 05:19:32;;;;;;;22.50;5.55;;;;;;;;;;5016064;28;20470;-50
2023/05/17 05:21:58;;;;;;;19.08;5.80;;;;;;;;;;5032496;28;20184;-50
2023/05/17 05:24:24;;;;;;;18.38;5.85;;;;;;;;;;5024768;28;20181;-51
2023/05/17 05:26:50;;;;;;;13.70;5.32;;;;;;;;;;5032355;28;20216;-52
2023/05/17 05:29:17;;;;;;;14.52;4.97;;;;;;;;;;5019484;28;20169;-53
2023/05/17 05:31:43;;;;;;;16.38;4.97;;;;;;;;;;5016241;28;20544;-51
2023/05/17 05:34:09;;;;;;;13.60;5.32;;;;;;;;;;5010894;28;20184;-52
2023/05/17 05:36:35;;;;;;;19.77;4.97;;;;;;;;;;5014671;28;20184;-51
2023/05/17 05:39:01;;;;;;;14.95;5.55;;;;;;;;;;5007784;28;20284;-51
2023/05/17 05:41:27;;;;;;;15.98;5.32;;;;;;;;;;5015102;28;20191;-51
2023/05/17 05:43:53;;;;;;;10.82;4.30;;;;;;;;;;5028191;28;20288;-51
2023/05/17 05:46:19;;;;;;;11.07;4.95;;;;;;;;;;5011161;28;20267;-51
2023/05/17 05:48:45;;;;;;;17.70;5.28;;;;;;;;;;5014625;28;20902;-53
2023/05/17 05:51:11;;;;;;;11.90;4.50;;;;;;;;;;5013748;28;20185;-53
2023/05/17 05:53:37;;;;;;;14.68;4.50;;;;;;;;;;5014191;28;20184;-50
2023/05/17 05:56:04;;;;;;;19.50;5.38;;;;;;;;;;5015678;28;20235;-52
2023/05/17 05:58:32;;;;;;;14.43;4.65;;;;;;;;;;5034978;28;20184;-52
2023/05/17 06:00:58;;;;;;;18.65;5.43;;;;;;;;;;5036091;28;20208;-52
2023/05/17 06:03:24;;;;;;;12.60;5.18;;;;;;;;;;5013759;28;20177;-52
2023/05/17 06:05:50;;;;;;;17.60;4.85;;;;;;;;;;5031183;28;20201;-51
2023/05/17 06:08:16;;;;;;;14.00;4.80;;;;;;;;;;5014043;28;20445;-51
2023/05/17 06:10:42;;;;;;;18.73;5.00;;;;;;;;;;5014376;28;20195;-51
2023/05/17 06:13:08;;;;;;;16.40;4.80;;;;;;;;;;5009444;28;20192;-51
2023/05/17 06:15:34;;;;;;;19.02;5.70;;;;;;;;;;5029037;28;20188;-51
2023/05/17 06:18:00;;;;;;;20.25;5.05;;;;;;;;;;5011531;28;20188;-51
2023/05/17 06:20:26;;;;;;;15.70;5.57;;;;;;;;;;5014405;28;20200;-52
2023/05/17 06:22:52;;;;;;;14.50;5.32;;;;;;;;;;5026852;28;20514;-51
2023/05/17 06:25:18;;;;;;;20.10;5.57;;;;;;;;;;5030757;28;20189;-52
2023/05/17 06:27:44;;;;;;;18.35;5.40;;;;;;;;;;5033225;28;20195;-51
2023/05/17 06:30:10;;;;;;;24.80;5.00;;;;;;;;;;5030788;28;20322;-51
2023/05/17 06:32:36;;;;;;;15.27;5.00;;;;;;;;;;5012772;28;20188;-51
2023/05/17 06:35:02;;;;;;;12.70;5.05;;;;;;;;;;5027858;28;20192;-51
2023/05/17 06:37:28;;;;;;;25.63;5.22;;;;;;;;;;5030310;28;20188;-51
2023/05/17 06:40:01;;;;;;;13.75;4.88;;;;;;;;;;5034305;28;20223;-51
2023/05/17 06:42:27;;;;;;;11.77;4.68;;;;;;;;;;5022531;28;20259;-51
2023/05/17 06:44:53;;;;;;;13.60;5.18;;;;;;;;;;5006830;28;20281;-51
2023/05/17 06:47:19;;;;;;;17.27;4.38;;;;;;;;;;5027917;28;20177;-51
2023/05/17 06:49:45;;;;;;;15.32;4.38;;;;;;;;;;5030670;28;20188;-51
2023/05/17 06:52:11;;;;;;;14.32;5.15;;;;;;;;;;5014529;28;20196;-52
2023/05/17 06:54:36;;;;;;;16.13;4.90;;;;;;;;;;5012587;28;20200;-51
2023/05/17 06:57:02;;;;;;;12.88;3.78;;;;;;;;;;5010760;28;20200;-51
2023/05/17 06:59:28;;;;;;;14.48;3.90;;;;;;;;;;5019252;28;20212;-51
2023/05/17 07:01:55;;;;;;;10.68;3.63;;;;;;;;;;5030902;28;20288;-51
2023/05/17 07:04:21;;;;;;;10.35;4.15;;;;;;;;;;5030531;28;20192;-52
2023/05/17 07:06:47;;;;;;;10.63;3.58;;;;;;;;;;5012613;28;20205;-51
2023/05/17 07:09:13;;;;;;;10.20;3.47;;;;;;;;;;5033021;28;20184;-51
2023/05/17 07:11:38;;;;;;;12.50;3.75;;;;;;;;;;5030477;28;20271;-51
2023/05/17 07:14:07;;;;;;;8.20;3.55;;;;;;;;;;5030925;28;20191;-51
2023/05/17 07:16:34;;;;;;;8.57;2.80;;;;;;;;;;5029983;28;20192;-51
2023/05/17 07:19:00;;;;;;;7.53;3.55;;;;;;;;;;5030861;28;20191;-51
2023/05/17 07:21:25;;;;;;;10.15;2.78;;;;;;;;;;5030011;28;20212;-51
2023/05/17 07:23:51;;;;;;;10.65;3.10;;;;;;;;;;5030085;28;20207;-51
2023/05/17 07:26:21;;;;;;;8.82;3.15;;;;;;;;;;5007630;28;20557;-51
2023/05/17 07:28:47;;;;;;;7.80;3.38;;;;;;;;;;5029881;28;20552;-52
2023/05/17 07:31:13;;;;;;;6.18;2.97;;;;;;;;;;5014661;28;20184;-51
2023/05/17 07:33:40;;;;;;;5.88;3.38;;;;;;;;;;5014385;28;20188;-51
2023/05/17 07:36:06;;;;;;;6.85;3.10;;;;;;;;;;5014591;28;20220;-51
2023/05/17 07:38:34;;;;;;;9.13;3.05;;;;;;;;;;5012371;28;20198;-51
2023/05/17 07:41:00;;;;;;;9.23;2.78;;;;;;;;;;5014609;28;20204;-51
2023/05/17 07:43:26;;;;;;;6.90;2.85;;;;;;;;;;5015170;28;20444;-51
2023/05/17 07:45:52;;;;;;;7.90;3.60;;;;;;;;;;5015009;28;20193;-51
2023/05/17 07:48:18;;;;;;;7.63;2.55;;;;;;;;;;5030405;28;20176;-51
2023/05/17 07:50:45;;;;;;;8.05;3.13;;;;;;;;;;5014310;28;20188;-51
2023/05/17 07:53:11;;;;;;;5.30;2.70;;;;;;;;;;5014840;28;20177;-51
2023/05/17 07:55:37;;;;;;;5.65;3.10;;;;;;;;;;5030610;28;20183;-51
2023/05/17 07:58:03;;;;;;;6.78;3.00;;;;;;;;;;5014778;28;20177;-51
2023/05/17 08:00:29;;;;;;;7.13;3.05;;;;;;;;;;5019695;28;20231;-51
2023/05/17 08:02:56;;;;;;;5.93;2.83;;;;;;;;;;5014640;28;20562;-52
2023/05/17 08:05:22;;;;;;;5.03;2.85;;;;;;;;;;5014337;28;20203;-51
2023/05/17 08:07:48;;;;;;;7.00;2.90;;;;;;;;;;5031213;28;20236;-51
2023/05/17 08:10:14;;;;;;;5.80;2.28;;;;;;;;;;5024534;28;20193;-51
2023/05/17 08:12:40;;;;;;;5.43;2.50;;;;;;;;;;5014479;28;20176;-51
2023/05/17 08:15:06;;;;;;;6.90;2.83;;;;;;;;;;5014772;28;20552;-51
2023/05/17 08:17:32;;;;;;;7.13;2.42;;;;;;;;;;5029779;28;20181;-51
2023/05/17 08:19:58;;;;;;;4.38;2.33;;;;;;;;;;5014112;28;20223;-51
2023/05/17 08:22:25;;;;;;;4.65;2.20;;;;;;;;;;5028868;28;20420;-51
2023/05/17 08:24:51;;;;;;;8.30;2.25;;;;;;;;;;5024491;28;20207;-51
2023/05/17 08:27:17;;;;;;;8.30;2.67;;;;;;;;;;5029637;28;20236;-51
2023/05/17 08:29:43;;;;;;;5.47;2.40;;;;;;;;;;5033454;28;20260;-49
2023/05/17 08:32:10;;;;;;;8.38;2.85;;;;;;;;;;5017980;28;20555;-51
2023/05/17 08:34:37;;;;;;;9.10;2.60;;;;;;;;;;5017974;28;20180;-53
2023/05/17 08:37:03;;;;;;;5.68;2.40;;;;;;;;;;5031117;28;20564;-52
2023/05/17 08:39:29;;;;;;;6.63;2.67;;;;;;;;;;5031832;28;20216;-51
2023/05/17 08:41:58;;;;;;;5.53;2.63;;;;;;;;;;5013225;28;20172;-53
2023/05/17 08:44:24;;;;;;;5.82;2.25;;;;;;;;;;5033737;28;20176;-52
2023/05/17 08:46:52;;;;;;;7.35;2.63;;;;;;;;;;5032755;28;20187;-52
2023/05/17 08:49:20;;;;;;;5.75;2.25;;;;;;;;;;5016660;28;20267;-48
2023/05/17 08:51:48;;;;;;;3.95;2.45;;;;;;;;;;5016686;28;20168;-51
2023/05/17 08:54:14;;;;;;;11.07;2.50;;;;;;;;;;5026655;28;20271;-51
2023/05/17 08:56:42;;;;;;;7.57;2.28;;;;;;;;;;5017182;28;20264;-52
2023/05/17 08:59:09;;;;;;;14.02;2.65;;;;;;;;;;5017376;28;20196;-50
2023/05/17 09:01:36;;;;;;;7.93;2.60;;;;;;;;;;5016636;28;20544;-51
2023/05/17 09:04:03;;;;;;;5.97;2.40;;;;;;;;;;5015593;28;20517;-52
2023/05/17 09:06:29;;;;;;;7.85;2.95;;;;;;;;;;5017592;28;20480;-50
2023/05/17 09:08:57;;;;;;;11.07;3.00;;;;;;;;;;5016677;28;20188;-51
2023/05/17 09:11:26;;;;;;;6.93;2.88;;;;;;;;;;5032614;28;20180;-50
2023/05/17 09:13:53;;;;;;;10.18;3.50;;;;;;;;;;5016628;28;20188;-50
2023/05/17 09:16:20;;;;;;;20.33;5.40;;;;;;;;;;5032796;28;20184;-50
2023/05/17 09:18:54;;;;;;;24.13;7.43;;;;;;;;;;5015023;28;20191;-51
2023/05/17 09:21:20;;;;;;;25.30;8.57;;;;;;;;;;5015862;28;20666;-50
2023/05/17 09:23:46;;;;;;;32.13;11.15;;;;;;;;;;5031754;28;20195;-50
2023/05/17 09:26:12;;;;;;;27.67;10.75;;;;;;;;;;5015526;28;20193;-50
2023/05/17 09:28:39;;;;;;;41.72;13.45;;;;;;;;;;5012673;28;20181;-50
2023/05/17 09:31:07;;;;;;;39.42;11.93;;;;;;;;;;5013741;28;20783;-51
2023/05/17 09:33:33;;;;;;;40.45;11.73;;;;;;;;;;5014624;28;20180;-49
2023/05/17 09:36:00;;;;;;;39.60;10.30;;;;;;;;;;5014694;28;20549;-50
2023/05/17 09:38:26;;;;;;;39.08;10.73;;;;;;;;;;5012085;28;20512;-48
2023/05/17 09:40:52;;;;;;;31.35;9.02;;;;;;;;;;5031649;28;20204;-50
2023/05/17 09:43:24;;;;;;;29.35;8.50;;;;;;;;;;5030209;28;20246;-50
2023/05/17 09:45:56;;;;;;;30.95;7.95;;;;;;;;;;5030341;28;20230;-49
2023/05/17 09:48:24;;;;;;;31.05;8.35;;;;;;;;;;5020263;28;20176;-49
2023/05/17 09:50:51;;;;;;;23.00;7.05;;;;;;;;;;5030490;28;20476;-49
2023/05/17 09:53:24;;;;;;;24.30;6.95;;;;;;;;;;5016558;28;20188;-49
2023/05/17 09:55:51;;;;;;;25.75;6.60;;;;;;;;;;5016155;28;20267;-50
2023/05/17 09:58:17;;;;;;;19.35;6.43;;;;;;;;;;5021979;28;20233;-50
2023/05/17 10:00:43;;;;;;;23.00;6.60;;;;;;;;;;5014544;28;20208;-48
2023/05/17 10:03:11;;;;;;;12.60;5.30;;;;;;;;;;5029218;28;20677;-50
2023/05/17 10:05:39;;;;;;;16.67;6.68;;;;;;;;;;5030539;28;20587;-48
2023/05/17 10:08:05;;;;;;;20.88;5.78;;;;;;;;;;5015653;28;20184;-47
2023/05/17 10:10:32;;;;;;;25.73;5.95;;;;;;;;;;5034717;28;20176;-47
2023/05/17 10:13:00;;;;;;;17.77;5.57;;;;;;;;;;5021238;28;20270;-47
2023/05/17 10:15:26;;;;;;;17.25;5.65;;;;;;;;;;5031466;28;20180;-47
2023/05/17 10:17:53;;;;;;;29.50;6.20;;;;;;;;;;5018452;28;20198;-49
2023/05/17 10:20:20;;;;;;;18.55;5.35;;;;;;;;;;5013855;28;20630;-47
2023/05/17 10:22:47;;;;;;;15.35;4.63;;;;;;;;;;5031184;28;20184;-52
2023/05/17 10:25:13;;;;;;;18.90;5.57;;;;;;;;;;5015098;28;20584;-53
2023/05/17 10:27:39;;;;;;;17.05;4.95;;;;;;;;;;5010611;28;20270;-53
2023/05/17 10:30:05;;;;;;;15.25;5.13;;;;;;;;;;5030523;28;20435;-53
2023/05/17 10:32:31;;;;;;;11.30;5.07;;;;;;;;;;5029743;28;20335;-53
2023/05/17 10:34:57;;;;;;;12.68;4.68;;;;;;;;;;5014318;28;20199;-53
2023/05/17 10:37:23;;;;;;;16.05;5.20;;;;;;;;;;5007375;28;20276;-53
2023/05/17 10:39:51;;;;;;;14.27;4.30;;;;;;;;;;5011333;28;20299;-53
2023/05/17 10:42:17;;;;;;;14.80;4.85;;;;;;;;;;5012981;28;20169;-53
2023/05/17 10:44:43;;;;;;;14.38;4.38;;;;;;;;;;5015045;28;20263;-52
2023/05/17 10:47:10;;;;;;;18.83;4.85;;;;;;;;;;5030492;28;20280;-52
2023/05/17 10:49:38;;;;;;;12.48;4.78;;;;;;;;;;5013775;28;20179;-52
2023/05/17 10:52:13;;;;;;;15.18;4.22;;;;;;;;;;5027822;28;20228;-52
2023/05/17 10:54:41;;;;;;;13.02;4.35;;;;;;;;;;5030485;28;20179;-52
2023/05/17 10:57:07;;;;;;;18.00;4.18;;;;;;;;;;5030817;28;20184;-52
2023/05/17 10:59:34;;;;;;;13.85;5.20;;;;;;;;;;5014823;28;20575;-52
2023/05/17 11:02:06;;;;;;;14.43;4.30;;;;;;;;;;5013937;28;20216;-53
2023/05/17 11:04:36;;;;;;;17.10;5.35;;;;;;;;;;5002447;28;20244;-53
2023/05/17 11:07:20;;;;;;;17.17;5.38;;;;;;;;;;5010734;28;20552;-53
2023/05/17 11:09:56;;;;;;;15.88;5.43;;;;;;;;;;5012668;28;20185;-53
2023/05/17 11:12:35;;;;;;;15.82;5.45;;;;;;;;;;5012310;28;20188;-53
2023/05/17 11:15:01;;;;;;;13.20;4.97;;;;;;;;;;5008076;28;20443;-53
2023/05/17 11:17:28;;;;;;;15.48;4.97;;;;;;;;;;5022935;28;20544;-53
2023/05/17 11:19:54;;;;;;;16.15;5.25;;;;;;;;;;5028917;28;20475;-53
2023/05/17 11:22:26;;;;;;;15.35;5.20;;;;;;;;;;5012926;28;20180;-53
2023/05/17 11:24:53;;;;;;;12.85;5.30;;;;;;;;;;5014921;28;20274;-53
2023/05/17 11:27:26;;;;;;;10.02;5.20;;;;;;;;;;5012873;28;20260;-53
2023/05/17 11:29:52;;;;;;;12.27;4.43;;;;;;;;;;5013999;28;20242;-53
2023/05/17 11:32:18;;;;;;;14.82;4.75;;;;;;;;;;5013726;28;20181;-52
2023/05/17 11:34:50;;;;;;;17.52;5.22;;;;;;;;;;5008956;28;20456;-52
2023/05/17 11:37:25;;;;;;;14.27;5.00;;;;;;;;;;5012363;28;20188;-53
2023/05/17 11:40:07;;;;;;;15.10;4.63;;;;;;;;;;5012408;28;20294;-52
2023/05/17 11:42:33;;;;;;;15.48;4.88;;;;;;;;;;5007828;28;20181;-52
2023/05/17 11:45:02;;;;;;;9.32;4.47;;;;;;;;;;5010675;28;20196;-52
2023/05/17 11:47:28;;;;;;;13.95;4.70;;;;;;;;;;5007754;28;20180;-52
2023/05/17 11:49:55;;;;;;;14.30;4.93;;;;;;;;;;5013289;28;20502;-52
2023/05/17 11:52:21;;;;;;;10.55;4.20;;;;;;;;;;5012304;28;20195;-52
2023/05/17 11:54:51;;;;;;;9.60;4.45;;;;;;;;;;5011284;28;20184;-52
2023/05/17 11:57:19;;;;;;;13.80;4.60;;;;;;;;;;5012895;28;20193;-52
2023/05/17 11:59:45;;;;;;;7.60;3.72;;;;;;;;;;5013369;28;20506;-52
2023/05/17 12:02:25;;;;;;;10.10;4.95;;;;;;;;;;5015052;28;20184;-52
2023/05/17 12:04:51;;;;;;;11.05;4.40;;;;;;;;;;5017925;28;20184;-52
2023/05/17 12:07:16;;;;;;;11.82;4.80;;;;;;;;;;5017825;28;20184;-52
2023/05/17 12:09:44;;;;;;;11.38;4.40;;;;;;;;;;5017388;28;20661;-52
2023/05/17 12:12:10;;;;;;;9.95;4.32;;;;;;;;;;5016509;28;20189;-52
2023/05/17 12:14:36;;;;;;;9.52;4.32;;;;;;;;;;5017813;28;20181;-52
2023/05/17 12:17:05;;;;;;;10.43;4.82;;;;;;;;;;5017413;28;20196;-52
2023/05/17 12:19:31;;;;;;;11.40;4.38;;;;;;;;;;5009877;28;20286;-52
2023/05/17 12:22:07;;;;;;;11.35;4.15;;;;;;;;;;5016611;28;20184;-52
2023/05/17 12:24:40;;;;;;;14.20;5.15;;;;;;;;;;5010203;28;20234;-52
2023/05/17 12:27:06;;;;;;;11.18;4.50;;;;;;;;;;5017356;28;20185;-52
2023/05/17 12:29:32;;;;;;;9.27;4.53;;;;;;;;;;5013015;28;20185;-53
2023/05/17 12:32:00;;;;;;;8.20;4.35;;;;;;;;;;5012725;28;20593;-53
2023/05/17 12:34:26;;;;;;;7.40;3.90;;;;;;;;;;5016319;28;20181;-53
2023/05/17 12:36:52;;;;;;;9.07;4.38;;;;;;;;;;5032774;28;20199;-52
2023/05/17 12:39:22;;;;;;;8.60;3.72;;;;;;;;;;5025856;28;20177;-52
2023/05/17 12:41:48;;;;;;;7.55;4.47;;;;;;;;;;5017522;28;20223;-52
2023/05/17 12:44:15;;;;;;;9.65;4.57;;;;;;;;;;5016311;28;20189;-52
2023/05/17 12:46:41;;;;;;;9.95;3.95;;;;;;;;;;5014876;28;20185;-53
2023/05/17 12:49:07;;;;;;;5.28;3.65;;;;;;;;;;5009256;28;20177;-52
2023/05/17 12:51:43;;;;;;;8.57;3.47;;;;;;;;;;5013988;28;20251;-52
2023/05/17 12:54:09;;;;;;;9.45;4.05;;;;;;;;;;5016612;28;20184;-52
2023/05/17 12:56:35;;;;;;;9.48;3.85;;;;;;;;;;5016795;28;20570;-52
2023/05/17 12:59:10;;;;;;;9.02;4.05;;;;;;;;;;5009832;28;20551;-52
2023/05/17 13:01:40;;;;;;;7.80;3.85;;;;;;;;;;5014922;28;20220;-52
2023/05/17 13:04:05;;;;;;;10.27;3.92;;;;;;;;;;5015245;28;20195;-52
2023/05/17 13:06:50;;;;;;;6.00;3.28;;;;;;;;;;5016921;28;20180;-52
2023/05/17 13:09:18;;;;;;;5.55;3.05;;;;;;;;;;5012563;28;20193;-52
2023/05/17 13:11:49;;;;;;;10.00;3.90;;;;;;;;;;5016358;28;20200;-53
2023/05/17 13:14:32;;;;;;;7.78;3.58;;;;;;;;;;5024527;28;20455;-53
2023/05/17 13:16:58;;;;;;;11.20;3.92;;;;;;;;;;5004179;28;20189;-53
2023/05/17 13:19:27;;;;;;;6.07;3.47;;;;;;;;;;5009494;28;20205;-52
2023/05/17 13:21:52;;;;;;;7.10;3.50;;;;;;;;;;5017039;28;20191;-52
2023/05/17 13:24:18;;;;;;;7.97;3.67;;;;;;;;;;5007813;28;20184;-52
2023/05/17 13:26:44;;;;;;;10.75;3.13;;;;;;;;;;5006784;28;20188;-52
2023/05/17 13:29:10;;;;;;;6.93;3.47;;;;;;;;;;5013128;28;20307;-52
2023/05/17 13:31:36;;;;;;;4.80;3.15;;;;;;;;;;5014113;28;20286;-52
2023/05/17 13:34:02;;;;;;;6.43;3.13;;;;;;;;;;5010553;28;20180;-53
2023/05/17 13:36:28;;;;;;;9.98;4.18;;;;;;;;;;5015740;28;20255;-52
2023/05/17 13:38:55;;;;;;;6.70;3.25;;;;;;;;;;5028921;28;20503;-52
2023/05/17 13:41:21;;;;;;;5.95;2.90;;;;;;;;;;5004752;28;20199;-52
2023/05/17 13:43:47;;;;;;;5.82;2.58;;;;;;;;;;5019885;28;20393;-52
2023/05/17 13:46:13;;;;;;;5.05;2.80;;;;;;;;;;5011029;28;20332;-52
2023/05/17 13:48:39;;;;;;;5.55;3.20;;;;;;;;;;5014775;28;20208;-52
2023/05/17 13:51:06;;;;;;;6.43;2.92;;;;;;;;;;5012565;28;20234;-52
2023/05/17 13:53:32;;;;;;;7.22;2.92;;;;;;;;;;5005503;28;20177;-53
2023/05/17 13:55:58;;;;;;;5.60;2.90;;;;;;;;;;5011355;28;20271;-53
2023/05/17 13:58:24;;;;;;;6.13;2.97;;;;;;;;;;5008485;28;20188;-53
2023/05/17 14:00:50;;;;;;;6.25;2.97;;;;;;;;;;5005262;28;20490;-53
2023/05/17 14:03:16;;;;;;;4.85;3.05;;;;;;;;;;5007293;28;20184;-52
2023/05/17 14:05:43;;;;;;;4.47;2.60;;;;;;;;;;5004969;28;20173;-52
2023/05/17 14:08:08;;;;;;;7.53;3.08;;;;;;;;;;5006581;28;20204;-52
2023/05/17 14:10:35;;;;;;;5.90;2.80;;;;;;;;;;5003903;28;20241;-52
2023/05/17 14:13:01;;;;;;;5.22;2.55;;;;;;;;;;5007153;28;20184;-52
2023/05/17 14:15:27;;;;;;;6.45;2.40;;;;;;;;;;5015432;28;20263;-52
2023/05/17 14:17:53;;;;;;;4.80;2.17;;;;;;;;;;5001943;28;20295;-52
2023/05/17 14:20:19;;;;;;;5.32;2.85;;;;;;;;;;5012866;28;20300;-52
2023/05/17 14:22:45;;;;;;;7.25;2.65;;;;;;;;;;5013413;28;20177;-53
2023/05/17 14:25:11;;;;;;;4.50;2.50;;;;;;;;;;5014069;28;20176;-52
2023/05/17 14:27:37;;;;;;;3.65;2.47;;;;;;;;;;5012183;28;20263;-52
2023/05/17 14:30:03;;;;;;;5.25;2.40;;;;;;;;;;5009966;28;20187;-52
2023/05/17 14:32:29;;;;;;;5.85;2.53;;;;;;;;;;5014220;28;20180;-52
2023/05/17 14:34:55;;;;;;;6.38;2.40;;;;;;;;;;5008939;28;20210;-52